Time;durP1;ratioP1;P1;durP2;ratioP2;P2;SDS_P1;SDS_P2;PMS_P1;PMS_P2;Temp;Humidity;BMP_temperature;BMP_pressure;BME280_temperature;BME280_humidity;BME280_pressure;Samples;Min_cycle;Max_cycle;Signal;HPM_P1;HPM_P2
2022/05/10 00:01:16;;;;;;;15.70;9.88;;;;;;;19.73;43.86;101951.25;4911912;28;114587;-76
2022/05/10 00:03:46;;;;;;;13.15;9.35;;;;;;;19.72;43.86;101946.81;4911223;28;114055;-74
2022/05/10 00:06:13;;;;;;;13.63;9.70;;;;;;;19.70;43.88;101943.34;4895090;28;123063;-75
2022/05/10 00:08:42;;;;;;;12.82;9.55;;;;;;;19.68;44.08;101945.28;4926850;28;123867;-75
2022/05/10 00:11:09;;;;;;;13.65;9.73;;;;;;;19.67;43.94;101944.44;4926231;28;113701;-75
2022/05/10 00:13:36;;;;;;;12.45;9.38;;;;;;;19.68;44.07;101947.97;4911642;28;113981;-75
2022/05/10 00:16:04;;;;;;;13.55;9.15;;;;;;;19.65;44.12;101944.53;4912277;28;123915;-75
2022/05/10 00:18:31;;;;;;;15.77;9.80;;;;;;;19.64;44.07;101940.09;4912089;28;123813;-75
2022/05/10 00:20:59;;;;;;;11.63;9.32;;;;;;;19.62;44.23;101931.28;4911468;28;115064;-75
2022/05/10 00:23:26;;;;;;;13.73;9.77;;;;;;;19.61;44.33;101928.72;4895123;28;114192;-75
2022/05/10 00:25:53;;;;;;;14.10;9.65;;;;;;;19.59;44.19;101934.19;4911905;28;124134;-75
2022/05/10 00:28:20;;;;;;;14.02;9.40;;;;;;;19.58;44.26;101928.91;4912026;28;123828;-75
2022/05/10 00:30:47;;;;;;;13.15;9.68;;;;;;;19.56;44.39;101926.31;4910956;28;113706;-75
2022/05/10 00:33:19;;;;;;;13.05;9.40;;;;;;;19.54;44.60;101928.25;4912420;28;113774;-75
2022/05/10 00:35:46;;;;;;;13.98;9.48;;;;;;;19.51;44.37;101928.44;4911567;28;124406;-75
2022/05/10 00:38:13;;;;;;;13.02;9.77;;;;;;;19.49;44.52;101925.00;4910842;28;122829;-75
2022/05/10 00:40:41;;;;;;;14.68;9.73;;;;;;;19.47;44.44;101926.91;4911698;28;114183;-75
2022/05/10 00:43:31;;;;;;;13.23;9.50;;;;;;;19.42;44.50;101929.03;4912207;28;114146;-76
2022/05/10 00:46:08;;;;;;;15.07;9.18;;;;;;;19.38;44.57;101917.66;4910489;28;124637;-75
2022/05/10 00:48:48;;;;;;;13.60;9.60;;;;;;;19.36;44.62;101924.06;4926044;28;123283;-76
2022/05/10 00:51:18;;;;;;;13.23;9.60;;;;;;;19.34;44.84;101920.63;4923842;28;115281;-75
2022/05/10 00:54:04;;;;;;;16.75;10.27;;;;;;;19.30;44.89;101919.09;4911858;28;113618;-76
2022/05/10 00:56:44;;;;;;;16.25;10.20;;;;;;;19.28;44.94;101921.03;4910125;28;123211;-76
2022/05/10 00:59:15;;;;;;;19.95;10.75;;;;;;;19.24;44.91;101910.47;4911092;28;123928;-75
2022/05/10 01:01:46;;;;;;;14.75;10.25;;;;;;;19.22;45.15;101912.41;4910770;28;114005;-76
2022/05/10 01:04:30;;;;;;;15.60;10.52;;;;;;;19.21;45.08;101915.19;4896159;28;113764;-76
2022/05/10 01:07:10;;;;;;;18.15;10.73;;;;;;;19.19;45.12;101911.72;4910773;28;124147;-75
2022/05/10 01:09:43;;;;;;;15.55;10.65;;;;;;;19.13;45.02;101902.25;4909696;28;123607;-76
2022/05/10 01:12:36;;;;;;;15.05;11.07;;;;;;;19.11;44.98;101909.53;4911303;28;115462;-76
2022/05/10 01:15:08;;;;;;;14.55;11.00;;;;;;;19.09;45.29;101906.09;4910969;28;114054;-76
2022/05/10 01:17:36;;;;;;;15.95;11.10;;;;;;;19.06;45.35;101895.53;4909255;28;124654;-76
2022/05/10 01:20:05;;;;;;;15.95;10.60;;;;;;;19.04;45.38;101892.97;4910643;28;122719;-76
2022/05/10 01:22:53;;;;;;;14.77;10.15;;;;;;;19.02;45.41;101894.00;4893910;28;113867;-76
2022/05/10 01:25:52;;;;;;;16.15;10.98;;;;;;;18.97;45.42;101882.72;4910309;28;113605;-75
2022/05/10 01:28:22;;;;;;;16.17;11.45;;;;;;;18.94;45.55;101877.53;4893294;28;123307;-76
2022/05/10 01:30:50;;;;;;;18.50;11.07;;;;;;;18.90;45.75;101873.34;4893217;28;123159;-76
2022/05/10 01:33:29;;;;;;;15.40;10.35;;;;;;;18.88;45.81;101875.25;4919432;28;114181;-76
2022/05/10 01:36:05;;;;;;;15.27;10.98;;;;;;;18.84;45.70;101870.06;4894353;28;113368;-76
2022/05/10 01:39:03;;;;;;;16.02;11.10;;;;;;;18.81;45.69;101875.63;4910339;28;124005;-77
2022/05/10 01:41:51;;;;;;;16.20;11.18;;;;;;;18.77;45.85;101879.44;4910656;28;124493;-77
2022/05/10 01:44:40;;;;;;;16.40;10.88;;;;;;;18.73;45.98;101872.53;4912623;28;114630;-76
2022/05/10 01:47:22;;;;;;;16.63;11.13;;;;;;;18.71;45.87;101874.47;4919755;28;113604;-76
2022/05/10 01:50:01;;;;;;;15.00;10.93;;;;;;;18.70;45.88;101871.88;4916800;28;123532;-76
2022/05/10 01:52:41;;;;;;;16.85;11.68;;;;;;;18.67;46.04;101873.78;4911677;28;123302;-76
2022/05/10 01:55:21;;;;;;;17.27;11.70;;;;;;;18.64;45.98;101868.59;4894850;28;113869;-76
2022/05/10 01:57:49;;;;;;;16.17;11.50;;;;;;;18.63;45.91;101866.03;4927373;28;96858;-76
2022/05/10 02:00:27;;;;;;;17.00;10.75;;;;;;;18.60;46.25;101861.72;4910391;28;124968;-76
2022/05/10 02:03:01;;;;;;;17.42;11.27;;;;;;;18.59;46.22;101859.13;4910850;28;124101;-76
2022/05/10 02:05:47;;;;;;;16.63;11.07;;;;;;;18.56;46.33;101853.97;4925188;28;114202;-76
2022/05/10 02:08:30;;;;;;;17.83;12.38;;;;;;;18.54;46.05;101855.88;4894164;28;114010;-76
2022/05/10 02:11:04;;;;;;;14.15;11.18;;;;;;;18.53;46.30;101849.63;4892915;28;123865;-77
2022/05/10 02:13:38;;;;;;;19.10;12.02;;;;;;;18.52;46.44;101852.44;4893592;28;123314;-76
2022/05/10 02:16:18;;;;;;;17.60;11.50;;;;;;;18.49;46.20;101848.97;4893903;28;113036;-76
2022/05/10 02:19:13;;;;;;;16.02;11.20;;;;;;;18.47;46.31;101844.66;4893322;28;113501;-76
2022/05/10 02:21:48;;;;;;;19.08;11.07;;;;;;;18.41;46.28;101840.53;4908901;28;123935;-76
2022/05/10 02:24:31;;;;;;;19.90;11.38;;;;;;;18.38;46.33;101840.72;4910991;28;124099;-76
2022/05/10 02:27:08;;;;;;;17.60;11.35;;;;;;;18.34;46.69;101839.19;4891612;28;114258;-77
2022/05/10 02:29:52;;;;;;;16.58;11.07;;;;;;;18.30;46.67;101837.66;4909137;28;114293;-77
2022/05/10 02:35:17;;;;;;;17.58;11.68;;;;;;;18.23;46.87;101830.94;4892680;28;122750;-77
2022/05/10 02:37:44;;;;;;;16.30;11.77;;;;;;;18.21;46.83;101828.34;4925146;28;114432;-77
2022/05/10 02:40:13;;;;;;;24.00;12.90;;;;;;;18.20;46.79;101825.78;4909943;28;113698;-76
2022/05/10 02:42:44;;;;;;;19.15;11.65;;;;;;;18.20;46.89;101826.66;4893016;28;123212;-77
2022/05/10 02:45:12;;;;;;;21.40;11.73;;;;;;;18.18;46.92;101822.34;4893188;28;122766;-77
2022/05/10 02:47:42;;;;;;;17.50;11.82;;;;;;;18.16;47.04;101824.22;4891704;28;113964;-78
2022/05/10 02:50:21;;;;;;;19.05;12.00;;;;;;;18.12;47.26;101822.69;4906376;28;113174;-77
2022/05/10 02:52:48;;;;;;;21.73;12.65;;;;;;;18.09;47.22;101824.59;4890801;28;122270;-77
2022/05/10 02:55:22;;;;;;;18.63;12.27;;;;;;;18.06;47.49;101824.81;4894768;28;122740;-77
2022/05/10 02:57:52;;;;;;;20.27;12.38;;;;;;;18.04;47.27;101826.69;4893876;28;116506;-77
2022/05/10 03:00:22;;;;;;;18.10;12.40;;;;;;;18.01;47.65;101816.19;4894837;28;115243;-77
2022/05/10 03:02:52;;;;;;;20.60;11.98;;;;;;;17.98;47.55;101816.34;4909064;28;124285;-78
2022/05/10 03:05:19;;;;;;;17.75;12.60;;;;;;;17.95;47.59;101811.22;4894408;28;125602;-77
2022/05/10 03:07:46;;;;;;;16.70;11.35;;;;;;;17.91;47.75;101815.00;4894435;28;114940;-77
2022/05/10 03:10:13;;;;;;;18.90;12.57;;;;;;;17.88;47.74;101812.53;4893787;28;114044;-76
2022/05/10 03:12:40;;;;;;;18.52;12.77;;;;;;;17.85;47.72;101794.78;4908533;28;124221;-77
2022/05/10 03:15:08;;;;;;;19.73;12.32;;;;;;;17.83;47.75;101806.53;4894746;28;124032;-78
2022/05/10 03:17:35;;;;;;;18.63;12.35;;;;;;;17.79;48.03;101805.84;4908705;28;114502;-77
2022/05/10 03:20:03;;;;;;;19.65;12.18;;;;;;;17.79;47.93;101796.97;4893905;28;114421;-78
2022/05/10 03:22:31;;;;;;;19.95;12.35;;;;;;;17.76;48.01;101795.31;4908194;28;124363;-77
2022/05/10 03:24:58;;;;;;;19.98;12.70;;;;;;;17.75;48.11;101798.13;4893818;28;123739;-77
2022/05/10 03:27:29;;;;;;;21.25;12.95;;;;;;;17.71;48.05;101798.28;4892445;28;114256;-77
2022/05/10 03:29:56;;;;;;;21.55;12.73;;;;;;;17.69;48.19;101789.47;4893265;28;113749;-77
2022/05/10 03:32:23;;;;;;;21.00;12.52;;;;;;;17.65;48.17;101782.59;4908310;28;124542;-77
2022/05/10 03:34:59;;;;;;;23.88;13.43;;;;;;;17.61;48.28;101781.06;4906850;28;123547;-77
2022/05/10 03:37:29;;;;;;;19.65;12.13;;;;;;;17.58;48.82;101781.22;4892113;28;113568;-78
2022/05/10 03:39:57;;;;;;;19.83;13.27;;;;;;;17.57;48.56;101779.47;4908139;28;114800;-78
2022/05/10 03:42:25;;;;;;;20.10;12.50;;;;;;;17.57;48.40;101778.63;4892079;28;124729;-77
2022/05/10 03:44:52;;;;;;;20.60;13.85;;;;;;;17.55;48.71;101776.03;4893488;28;123629;-77
2022/05/10 03:47:22;;;;;;;20.42;13.07;;;;;;;17.56;48.60;101777.78;4891210;28;114042;-77
2022/05/10 03:49:49;;;;;;;20.90;13.27;;;;;;;17.55;48.83;101781.38;4892662;28;114983;-76
2022/05/10 03:52:17;;;;;;;20.85;13.27;;;;;;;17.55;48.85;101778.72;4892427;28;123860;-76
2022/05/10 03:54:46;;;;;;;24.65;13.63;;;;;;;17.55;48.93;101770.69;4906288;28;124269;-76
2022/05/10 03:57:14;;;;;;;21.63;13.45;;;;;;;17.55;48.97;101780.53;4890893;28;114177;-78
2022/05/10 03:59:43;;;;;;;21.83;13.45;;;;;;;17.55;48.99;101776.03;4892697;28;113360;-76
2022/05/10 04:02:13;;;;;;;22.65;12.80;;;;;;;17.54;49.12;101774.31;4892558;28;124139;-77
2022/05/10 04:04:40;;;;;;;19.33;13.05;;;;;;;17.54;48.97;101774.31;4908017;28;123950;-76
2022/05/10 04:07:07;;;;;;;20.55;13.48;;;;;;;17.54;49.10;101768.97;4908186;28;113972;-77
2022/05/10 04:09:35;;;;;;;20.80;13.45;;;;;;;17.55;49.17;101769.81;4893824;28;114308;-77
2022/05/10 04:12:03;;;;;;;23.08;14.35;;;;;;;17.54;49.37;101768.97;4893005;28;124095;-77
2022/05/10 04:14:30;;;;;;;20.92;14.25;;;;;;;17.55;49.24;101770.69;4908952;28;123803;-77
2022/05/10 04:16:57;;;;;;;21.55;13.88;;;;;;;17.54;49.43;101768.97;4892483;28;113642;-78
2022/05/10 04:19:24;;;;;;;22.05;14.13;;;;;;;17.55;49.36;101776.03;4897022;28;113935;-77
2022/05/10 04:21:51;;;;;;;24.02;15.82;;;;;;;17.56;49.27;101769.75;4908958;28;123650;-77
2022/05/10 04:24:20;;;;;;;21.38;14.70;;;;;;;17.57;49.51;101771.44;4895336;28;124742;-77
2022/05/10 04:26:48;;;;;;;23.73;15.73;;;;;;;17.60;49.80;101770.41;4910209;28;114577;-77
2022/05/10 04:29:16;;;;;;;21.85;15.20;;;;;;;17.61;49.70;101759.63;4911350;28;113189;-78
2022/05/10 04:31:44;;;;;;;22.33;15.30;;;;;;;17.63;49.55;101765.75;4892404;28;122213;-77
2022/05/10 04:34:11;;;;;;;24.80;15.70;;;;;;;17.63;49.77;101757.69;4909184;28;124087;-78
2022/05/10 04:36:38;;;;;;;24.63;15.27;;;;;;;17.65;49.87;101766.50;4908635;28;115798;-78
2022/05/10 04:39:06;;;;;;;23.90;16.15;;;;;;;17.66;49.98;101767.38;4892100;28;114289;-77
2022/05/10 04:41:36;;;;;;;24.42;16.08;;;;;;;17.68;49.83;101771.66;4907796;28;122928;-77
2022/05/10 04:44:07;;;;;;;23.75;16.05;;;;;;;17.68;50.07;101760.94;4892929;28;123717;-77
2022/05/10 04:46:35;;;;;;;24.35;16.40;;;;;;;17.70;50.04;101769.75;4908003;28;113857;-77
2022/05/10 04:49:04;;;;;;;24.83;16.42;;;;;;;17.71;49.99;101760.78;4907560;28;114192;-77
2022/05/10 04:51:33;;;;;;;23.08;16.10;;;;;;;17.75;50.05;101760.59;4892428;28;125080;-77
2022/05/10 04:54:00;;;;;;;26.10;16.77;;;;;;;17.77;50.05;101767.56;4891350;28;124278;-77
2022/05/10 04:56:27;;;;;;;27.08;16.55;;;;;;;17.80;50.16;101763.84;4907516;28;114132;-77
2022/05/10 04:58:54;;;;;;;24.65;15.98;;;;;;;17.84;50.14;101760.94;4875415;28;114043;-77
2022/05/10 05:01:27;;;;;;;25.88;16.85;;;;;;;17.88;50.24;101756.25;4891064;28;124452;-77
2022/05/10 05:04:01;;;;;;;23.92;16.98;;;;;;;17.92;50.19;101755.09;4907040;28;124088;-77
2022/05/10 05:06:29;;;;;;;25.73;16.90;;;;;;;17.98;50.38;101757.38;4891930;28;114275;-77
2022/05/10 05:08:57;;;;;;;28.67;16.60;;;;;;;18.02;50.36;101753.56;4892562;28;114071;-77
2022/05/10 05:11:24;;;;;;;25.45;16.60;;;;;;;18.08;50.32;101753.19;4905870;28;124204;-78
2022/05/10 05:13:52;;;;;;;25.90;17.30;;;;;;;18.13;50.41;101749.38;4892163;28;123854;-78
2022/05/10 05:16:20;;;;;;;25.63;16.30;;;;;;;18.17;50.28;101745.53;4890788;28;114254;-78
2022/05/10 05:18:47;;;;;;;26.80;16.75;;;;;;;18.23;50.46;101750.50;4891401;28;113448;-78
2022/05/10 05:21:14;;;;;;;23.95;16.52;;;;;;;18.30;50.24;101749.16;4890500;28;123445;-78
2022/05/10 05:23:42;;;;;;;27.13;16.58;;;;;;;18.37;50.19;101753.19;4891764;28;124861;-78
2022/05/10 05:26:09;;;;;;;26.65;16.50;;;;;;;18.43;50.24;101758.16;4906206;28;114635;-78
2022/05/10 05:28:36;;;;;;;27.70;16.05;;;;;;;18.51;50.10;101754.13;4890515;28;113824;-77
2022/05/10 05:31:04;;;;;;;27.05;16.88;;;;;;;18.60;50.16;101756.22;4889907;28;123298;-78
2022/05/10 05:33:33;;;;;;;26.80;16.13;;;;;;;18.68;50.18;101752.09;4906901;28;125817;-78
2022/05/10 05:36:00;;;;;;;27.80;16.23;;;;;;;18.76;49.99;101754.28;4893684;28;114609;-77
2022/05/10 05:38:27;;;;;;;26.63;15.68;;;;;;;18.84;50.01;101757.34;4894445;28;114901;-78
2022/05/10 05:40:54;;;;;;;26.65;15.85;;;;;;;18.94;49.94;101757.59;4893480;28;124356;-78
2022/05/10 05:43:22;;;;;;;23.75;15.10;;;;;;;19.04;49.85;101757.84;4893581;28;124089;-77
2022/05/10 05:45:51;;;;;;;25.00;15.07;;;;;;;19.12;49.52;101755.53;4892570;28;113851;-78
2022/05/10 05:48:19;;;;;;;24.50;14.95;;;;;;;19.22;49.89;101756.63;4906872;28;114510;-77
2022/05/10 05:50:47;;;;;;;26.63;15.25;;;;;;;19.33;49.71;101753.22;4890261;28;123860;-78
2022/05/10 05:53:17;;;;;;;23.23;14.82;;;;;;;19.43;49.59;101745.38;4889281;28;123950;-77
2022/05/10 05:55:47;;;;;;;24.30;14.88;;;;;;;19.53;49.63;101743.78;4890971;28;114594;-78
2022/05/10 05:58:15;;;;;;;21.65;14.18;;;;;;;19.63;49.45;101754.78;4890583;28;113756;-77
2022/05/10 06:00:43;;;;;;;22.38;14.73;;;;;;;19.72;49.35;101747.88;4889926;28;123699;-77
2022/05/10 06:03:10;;;;;;;20.77;14.18;;;;;;;19.80;49.27;101745.59;4891652;28;123994;-77
2022/05/10 06:05:37;;;;;;;19.52;13.57;;;;;;;19.89;48.98;101739.56;4891743;28;114299;-77
2022/05/10 06:08:06;;;;;;;20.70;14.05;;;;;;;19.98;49.14;101733.50;4906273;28;113344;-78
2022/05/10 06:10:33;;;;;;;19.33;13.15;;;;;;;20.08;49.20;101743.63;4905444;28;124339;-77
2022/05/10 06:13:01;;;;;;;21.02;13.65;;;;;;;20.18;48.98;101739.31;4891570;28;123622;-77
2022/05/10 06:15:29;;;;;;;18.40;13.52;;;;;;;20.27;48.89;101737.78;4906224;28;114051;-77
2022/05/10 06:17:57;;;;;;;19.17;13.07;;;;;;;20.36;48.80;101748.78;4890275;28;113960;-77
2022/05/10 06:20:25;;;;;;;19.88;12.45;;;;;;;20.46;48.51;101737.34;4905393;28;124123;-77
2022/05/10 06:22:52;;;;;;;18.52;13.02;;;;;;;20.55;48.71;101731.25;4890003;28;122579;-78
2022/05/10 06:25:21;;;;;;;17.48;12.95;;;;;;;20.68;48.53;101729.44;4891512;28;113515;-77
2022/05/10 06:27:50;;;;;;;16.58;12.85;;;;;;;20.78;48.28;101727.78;4906171;28;114268;-78
2022/05/10 06:30:20;;;;;;;18.00;12.50;;;;;;;20.89;48.57;101724.31;4908520;28;124525;-78
2022/05/10 06:32:47;;;;;;;21.00;12.38;;;;;;;21.02;48.28;101724.25;4893378;28;123098;-77
2022/05/10 06:35:17;;;;;;;19.05;13.13;;;;;;;21.13;48.10;101726.97;4894949;28;113995;-78
2022/05/10 06:40:34;;;;;;;16.48;11.98;;;;;;;21.34;47.49;101715.53;4893079;28;123714;-77
2022/05/10 06:43:04;;;;;;;14.75;11.57;;;;;;;21.44;47.72;101713.88;4892456;28;124161;-77
2022/05/10 06:45:32;;;;;;;15.15;10.65;;;;;;;21.56;47.67;101712.91;4894960;28;113977;-77
2022/05/10 06:47:59;;;;;;;12.63;9.10;;;;;;;21.68;47.34;101704.84;4909349;28;114050;-77
2022/05/10 06:50:26;;;;;;;16.05;10.10;;;;;;;21.80;47.21;101714.69;4908252;28;124602;-77
2022/05/10 06:52:57;;;;;;;11.48;9.57;;;;;;;21.92;47.04;101705.59;4892924;28;122557;-77
2022/05/10 06:55:30;;;;;;;12.98;9.65;;;;;;;22.02;46.84;101708.44;4892510;28;113743;-76
2022/05/10 06:57:59;;;;;;;13.25;8.75;;;;;;;22.12;46.63;101703.16;4910010;28;115821;-77
2022/05/10 07:00:37;;;;;;;13.20;8.90;;;;;;;22.22;46.48;101704.13;4906928;28;122948;-78
2022/05/10 07:03:11;;;;;;;11.68;8.38;;;;;;;22.33;46.35;101701.44;4893563;28;124209;-77
2022/05/10 07:05:41;;;;;;;11.38;8.20;;;;;;;22.44;46.27;101697.03;4893791;28;115220;-77
2022/05/10 07:08:08;;;;;;;11.20;9.00;;;;;;;22.52;45.97;101699.94;4908856;28;112717;-76
2022/05/10 07:10:35;;;;;;;11.50;8.63;;;;;;;22.61;45.87;101698.34;4908642;28;124063;-76
2022/05/10 07:13:02;;;;;;;12.00;8.73;;;;;;;22.69;45.67;101702.09;4894458;28;123851;-76
2022/05/10 07:15:30;;;;;;;11.38;8.32;;;;;;;22.74;45.55;101689.09;4909079;28;114204;-76
2022/05/10 07:17:57;;;;;;;13.45;8.65;;;;;;;22.82;45.52;101690.31;4892626;28;113400;-77
2022/05/10 07:20:24;;;;;;;14.30;8.77;;;;;;;22.89;45.57;101686.09;4892628;28;123726;-76
2022/05/10 07:22:51;;;;;;;11.63;8.23;;;;;;;22.96;45.17;101689.97;4892926;28;123329;-76
2022/05/10 07:25:23;;;;;;;13.52;8.10;;;;;;;23.01;45.17;101685.06;4908758;28;114242;-76
2022/05/10 07:27:50;;;;;;;14.05;8.57;;;;;;;23.09;44.93;101687.13;4908441;28;113346;-76
2022/05/10 07:30:19;;;;;;;13.05;8.48;;;;;;;23.14;44.90;101687.59;4907434;28;123319;-75
2022/05/10 07:32:47;;;;;;;12.75;8.40;;;;;;;;;;4876194;28;123395;-76
2022/05/10 07:35:14;;;;;;;11.23;8.07;;;;;;;23.25;44.80;101686.69;4893754;28;115984;-76
2022/05/10 07:37:42;;;;;;;11.30;8.02;;;;;;;23.30;44.91;101689.84;4893493;28;113837;-76
2022/05/10 07:40:11;;;;;;;12.05;8.77;;;;;;;23.36;44.73;101683.94;4891481;28;123738;-76
2022/05/10 07:42:40;;;;;;;10.90;8.43;;;;;;;23.45;44.58;101685.84;4893644;28;123593;-76
2022/05/10 07:45:09;;;;;;;12.35;8.95;;;;;;;23.54;44.55;101686.03;4894142;28;114078;-77
2022/05/10 07:47:39;;;;;;;11.02;8.10;;;;;;;23.63;44.62;101679.81;4892205;28;113883;-76
2022/05/10 07:50:07;;;;;;;14.02;8.23;;;;;;;23.72;44.41;101679.03;4907582;28;124576;-76
2022/05/10 07:52:34;;;;;;;11.70;8.15;;;;;;;23.81;44.38;101678.25;4893615;28;124685;-77
2022/05/10 07:55:02;;;;;;;9.95;7.80;;;;;;;23.93;44.10;101683.56;4893080;28;116851;-76
2022/05/10 07:57:30;;;;;;;12.52;8.68;;;;;;;24.05;44.23;101680.63;4908033;28;114056;-77
2022/05/10 07:59:57;;;;;;;12.55;8.38;;;;;;;24.19;44.08;101671.25;4907303;28;123478;-76
2022/05/10 08:02:24;;;;;;;12.45;7.93;;;;;;;24.32;43.95;101670.13;4907783;28;122506;-76
2022/05/10 08:04:51;;;;;;;12.77;8.10;;;;;;;24.45;43.65;101676.19;4893593;28;114361;-77
2022/05/10 08:07:18;;;;;;;11.07;7.85;;;;;;;24.55;43.44;101670.81;4907833;28;114716;-76
2022/05/10 08:09:45;;;;;;;9.82;6.90;;;;;;;24.65;43.37;101667.09;4892683;28;123209;-76
2022/05/10 08:12:13;;;;;;;11.43;6.90;;;;;;;24.76;43.31;101662.56;4861034;28;125049;-77
2022/05/10 08:14:40;;;;;;;8.63;7.10;;;;;;;24.88;42.95;101666.81;4908709;28;114074;-76
2022/05/10 08:17:07;;;;;;;9.32;6.85;;;;;;;24.95;42.76;101662.53;4893445;28;114383;-76
2022/05/10 08:19:34;;;;;;;9.07;6.60;;;;;;;25.00;42.31;101652.13;4907184;28;123374;-77
2022/05/10 08:22:02;;;;;;;10.60;6.57;;;;;;;25.04;42.04;101650.00;4892359;28;124889;-76
2022/05/10 08:24:30;;;;;;;8.50;6.10;;;;;;;25.09;41.96;101657.69;4893674;28;113435;-75
2022/05/10 08:26:59;;;;;;;8.35;5.82;;;;;;;25.13;41.89;101653.69;4907746;28;112554;-77
2022/05/10 08:29:26;;;;;;;7.70;5.90;;;;;;;25.19;41.89;101653.13;4892726;28;124509;-77
2022/05/10 08:31:53;;;;;;;8.32;6.20;;;;;;;25.27;42.05;101650.56;4892185;28;123514;-76
2022/05/10 08:34:20;;;;;;;9.20;5.93;;;;;;;25.34;41.69;101650.84;4907779;28;113159;-76
2022/05/10 08:36:52;;;;;;;7.35;5.55;;;;;;;25.40;41.52;101651.09;4892616;28;114398;-77
2022/05/10 08:39:19;;;;;;;7.38;5.32;;;;;;;25.47;41.71;101645.09;4907186;28;124758;-76
2022/05/10 08:41:55;;;;;;;7.53;5.47;;;;;;;25.52;41.16;101649.06;4891686;28;123567;-76
2022/05/10 08:44:25;;;;;;;7.57;5.30;;;;;;;25.58;41.17;101644.91;4907033;28;113754;-76
2022/05/10 08:46:57;;;;;;;7.65;5.45;;;;;;;25.63;41.21;101639.91;4907346;28;114883;-77
2022/05/10 08:49:36;;;;;;;7.85;5.40;;;;;;;25.71;40.91;101642.75;4906820;28;123918;-76
2022/05/10 08:52:05;;;;;;;9.05;5.88;;;;;;;25.77;40.98;101642.13;4890738;28;124866;-77
2022/05/10 08:54:36;;;;;;;6.45;5.40;;;;;;;25.85;40.87;101644.09;4907074;28;114218;-76
2022/05/10 08:57:14;;;;;;;8.40;5.50;;;;;;;25.91;40.66;101642.66;4905371;28;114139;-76
2022/05/10 09:00:17;;;;;;;7.50;5.47;;;;;;;25.95;40.75;101634.06;4906845;28;123677;-76
2022/05/10 09:02:52;;;;;;;8.02;5.63;;;;;;;26.00;40.43;101636.34;4906727;28;123711;-76
2022/05/10 09:05:28;;;;;;;6.97;4.88;;;;;;;26.01;40.42;101621.75;4907164;28;113097;-77
2022/05/10 09:08:07;;;;;;;5.63;4.40;;;;;;;26.01;39.97;101616.31;4892672;28;113825;-76
2022/05/10 09:10:56;;;;;;;6.50;4.65;;;;;;;25.98;39.78;101616.66;4891063;28;124303;-76
2022/05/10 09:13:24;;;;;;;5.90;4.28;;;;;;;25.95;39.75;101616.94;4888653;28;123754;-76
2022/05/10 09:15:56;;;;;;;5.88;4.35;;;;;;;25.92;39.71;101618.09;4907048;28;114240;-76
2022/05/10 09:18:37;;;;;;;5.60;4.65;;;;;;;25.93;39.62;101613.53;4906807;28;113289;-76
2022/05/10 09:21:24;;;;;;;5.78;4.45;;;;;;;25.95;39.69;101611.50;4890087;28;123211;-76
2022/05/10 09:24:06;;;;;;;7.82;4.20;;;;;;;25.97;39.78;101614.94;4904473;28;124619;-76
2022/05/10 09:26:40;;;;;;;8.20;4.28;;;;;;;26.02;39.39;101612.63;4891109;28;114850;-77
2022/05/10 09:29:17;;;;;;;7.55;4.28;;;;;;;26.08;39.75;101606.56;4892389;28;114874;-77
2022/05/10 09:34:46;;;;;;;6.22;3.88;;;;;;;26.20;39.50;101610.78;4890574;28;123725;-77
2022/05/10 09:37:31;;;;;;;9.40;3.90;;;;;;;26.29;39.06;101610.88;4890880;28;115121;-75
2022/05/10 09:40:22;;;;;;;5.82;3.67;;;;;;;26.34;39.03;101605.84;4906055;28;113811;-76
2022/05/10 09:42:52;;;;;;;6.97;4.43;;;;;;;26.44;38.81;101601.19;4855091;28;124177;-75
2022/05/10 09:45:21;;;;;;;6.60;4.47;;;;;;;26.52;38.68;101597.69;4890459;28;124633;-76
2022/05/10 09:47:53;;;;;;;6.55;4.30;;;;;;;26.64;38.88;101601.06;4891968;28;113971;-76
2022/05/10 09:50:29;;;;;;;6.15;4.15;;;;;;;26.75;38.73;101598.13;4905317;28;113376;-77
2022/05/10 09:53:27;;;;;;;8.43;4.38;;;;;;;26.88;38.33;101595.84;4889273;28;124024;-76
2022/05/10 09:56:04;;;;;;;6.38;3.83;;;;;;;26.97;37.99;101592.19;4889482;28;123785;-77
2022/05/10 09:58:41;;;;;;;7.00;3.70;;;;;;;27.02;37.67;101585.41;4891159;28;114685;-76
2022/05/10 10:01:11;;;;;;;4.15;3.38;;;;;;;27.05;37.67;101594.09;4889240;28;113849;-76
2022/05/10 10:03:44;;;;;;;6.47;3.45;;;;;;;27.06;37.18;101595.78;4876483;28;124007;-75
2022/05/10 10:06:17;;;;;;;6.25;3.78;;;;;;;27.07;37.11;101588.47;4909967;28;124908;-77
2022/05/10 10:08:54;;;;;;;5.70;3.20;;;;;;;27.07;37.25;101585.75;4893869;28;113070;-76
2022/05/10 10:11:21;;;;;;;5.25;3.45;;;;;;;27.12;37.00;101588.84;4894245;28;113734;-76
2022/05/10 10:13:52;;;;;;;4.32;3.45;;;;;;;27.20;37.12;101586.22;4893762;28;124092;-76
2022/05/10 10:16:25;;;;;;;4.82;3.25;;;;;;;27.31;37.55;101582.38;4893079;28;124220;-76
2022/05/10 10:18:58;;;;;;;6.13;3.63;;;;;;;27.45;37.25;101578.22;4895033;28;115260;-76
2022/05/10 10:21:34;;;;;;;8.15;3.70;;;;;;;27.55;37.36;101578.94;4909362;28;113917;-77
2022/05/10 10:24:01;;;;;;;5.80;3.65;;;;;;;27.61;36.91;101578.28;4892468;28;123670;-76
2022/05/10 10:26:39;;;;;;;6.25;3.65;;;;;;;27.68;36.98;101573.91;4894636;28;124543;-75
2022/05/10 10:29:21;;;;;;;6.20;4.38;;;;;;;27.76;36.71;101575.78;4909097;28;114026;-76
2022/05/10 10:31:58;;;;;;;5.63;3.53;;;;;;;27.84;36.87;101566.81;4908498;28;115209;-76
2022/05/10 10:34:35;;;;;;;4.00;3.28;;;;;;;27.93;36.98;101574.00;4893201;28;122179;-76
2022/05/10 10:37:22;;;;;;;5.50;3.47;;;;;;;28.05;36.75;101567.25;4892965;28;123915;-76
2022/05/10 10:40:25;;;;;;;6.28;3.72;;;;;;;28.15;36.70;101565.22;4907776;28;114479;-75
2022/05/10 10:43:02;;;;;;;5.53;3.30;;;;;;;28.28;36.11;101558.44;4865813;28;113393;-76
2022/05/10 10:45:37;;;;;;;7.28;3.55;;;;;;;28.37;35.79;101562.88;4908765;28;123267;-76
2022/05/10 10:48:18;;;;;;;5.60;2.97;;;;;;;28.48;35.85;101559.84;4909574;28;123473;-76
2022/05/10 10:50:46;;;;;;;4.20;3.53;;;;;;;28.63;36.18;101551.00;4894120;28;114833;-76
2022/05/10 10:53:13;;;;;;;7.07;3.30;;;;;;;28.80;35.62;101541.78;4909059;28;113680;-75
2022/05/10 10:55:53;;;;;;;5.35;3.38;;;;;;;28.99;35.43;101534.25;4891684;28;123837;-76
2022/05/10 10:58:51;;;;;;;5.22;3.10;;;;;;;29.15;35.13;101528.78;4908490;28;122635;-77
2022/05/10 11:01:30;;;;;;;3.65;2.78;;;;;;;29.30;35.20;101527.03;4893801;28;114477;-75
2022/05/10 11:04:25;;;;;;;5.47;3.20;;;;;;;29.42;34.32;101529.38;4908933;28;112670;-75
2022/05/10 11:06:54;;;;;;;5.22;3.05;;;;;;;29.41;33.87;101533.16;4894070;28;123966;-76
2022/05/10 11:09:32;;;;;;;4.45;3.28;;;;;;;29.41;33.91;101522.22;4892826;28;123170;-76
2022/05/10 11:12:18;;;;;;;4.32;2.80;;;;;;;29.44;33.69;101527.31;4890215;28;113964;-75
2022/05/10 11:15:11;;;;;;;8.40;2.70;;;;;;;29.43;33.54;101514.72;4906954;28;114477;-75
2022/05/10 11:18:06;;;;;;;4.15;2.90;;;;;;;29.43;33.73;101514.72;4907877;28;124264;-75
2022/05/10 11:21:03;;;;;;;6.35;2.92;;;;;;;29.50;33.48;101513.00;4893082;28;123653;-75
2022/05/10 11:23:53;;;;;;;5.95;2.60;;;;;;;29.56;33.33;101504.06;4908026;28;115588;-75
2022/05/10 11:27:01;;;;;;;4.15;2.83;;;;;;;29.62;33.14;101508.81;4894040;28;114489;-75
2022/05/10 11:29:57;;;;;;;4.10;3.20;;;;;;;29.66;33.14;101504.69;4875575;28;123672;-76
2022/05/10 11:32:43;;;;;;;4.70;3.22;;;;;;;29.67;33.17;101506.41;4891951;28;122619;-75
2022/05/10 11:35:23;;;;;;;7.00;3.00;;;;;;;29.76;32.81;101503.66;4891938;28;113541;-75
2022/05/10 11:38:05;;;;;;;5.20;2.65;;;;;;;29.87;32.63;101497.78;4892613;28;112861;-75
2022/05/10 11:40:52;;;;;;;4.88;2.78;;;;;;;29.97;32.62;101495.69;4893569;28;123941;-74
2022/05/10 11:43:25;;;;;;;3.92;2.90;;;;;;;30.01;32.10;101494.28;4890828;28;123865;-75